Time;durP1;ratioP1;P1;durP2;ratioP2;P2;SDS_P1;SDS_P2;PMS_P1;PMS_P2;Temp;Humidity;BMP_temperature;BMP_pressure;BME280_temperature;BME280_humidity;BME280_pressure;Samples;Min_cycle;Max_cycle;Signal;HPM_P1;HPM_P2
2022/01/21 00:00:28;;;;;;;95.57;90.63;;;4.40;99.90;;;;;;4969980;28;20651;-81
2022/01/21 00:02:54;;;;;;;103.03;96.90;;;4.40;99.90;;;;;;5001977;28;20200;-79
2022/01/21 00:05:21;;;;;;;100.23;94.00;;;4.30;99.90;;;;;;4991262;28;20532;-80
2022/01/21 00:07:47;;;;;;;103.70;98.30;;;4.30;99.90;;;;;;4984459;28;20656;-79
2022/01/21 00:10:14;;;;;;;107.60;101.63;;;4.30;99.90;;;;;;4990139;28;20555;-81
2022/01/21 00:12:39;;;;;;;99.43;94.30;;;4.20;99.90;;;;;;4986568;28;20208;-81
2022/01/21 00:15:07;;;;;;;105.37;99.30;;;4.20;99.90;;;;;;4983966;28;20220;-81
2022/01/21 00:17:34;;;;;;;103.83;97.93;;;4.10;99.90;;;;;;4982875;28;20749;-80
2022/01/21 00:30:58;;;;;;;96.67;91.37;;;4.20;99.90;;;;;;4985591;28;20268;-80
2022/01/21 00:33:24;;;;;;;101.60;95.80;;;4.20;99.90;;;;;;4982436;28;20312;-81
2022/01/21 00:35:49;;;;;;;100.33;94.53;;;4.10;99.90;;;;;;4997849;28;20793;-81
2022/01/21 00:38:15;;;;;;;105.00;99.17;;;4.10;99.90;;;;;;4974503;28;20188;-81
2022/01/21 00:40:41;;;;;;;98.20;93.47;;;4.00;99.90;;;;;;4982227;28;20274;-80
2022/01/21 00:45:35;;;;;;;100.70;95.30;;;4.00;99.90;;;;;;4985532;28;20216;-81
2022/01/21 00:48:01;;;;;;;96.40;91.17;;;4.00;99.90;;;;;;4966780;28;20204;-80
2022/01/21 00:50:27;;;;;;;103.77;98.07;;;4.00;99.90;;;;;;4984308;28;20204;-79
2022/01/21 00:52:52;;;;;;;99.43;94.20;;;4.00;99.90;;;;;;4973531;28;20278;-80
2022/01/21 00:55:18;;;;;;;98.67;93.67;;;3.90;99.90;;;;;;4967902;28;20176;-80
2022/01/21 00:57:44;;;;;;;94.20;88.90;;;3.90;99.90;;;;;;4982092;28;20255;-81
2022/01/21 01:00:12;;;;;;;96.73;91.63;;;4.00;99.90;;;;;;4983667;28;20203;-82
2022/01/21 01:02:38;;;;;;;97.27;91.50;;;4.00;99.90;;;;;;4985862;28;20196;-79
2022/01/21 01:05:06;;;;;;;92.23;87.13;;;4.00;99.90;;;;;;4988698;28;20195;-81
2022/01/21 01:07:32;;;;;;;97.87;92.67;;;4.00;99.90;;;;;;4998955;28;20243;-80
2022/01/21 01:10:00;;;;;;;92.07;86.80;;;4.10;99.90;;;;;;5000379;28;20172;-79
2022/01/21 01:20:22;;;;;;;95.60;90.37;;;4.20;99.90;;;;;;4982729;28;20239;-80
2022/01/21 01:23:06;;;;;;;96.60;90.83;;;4.20;99.90;;;;;;4984721;28;20197;-80
2022/01/21 01:28:16;;;;;;;92.87;87.80;;;4.10;99.90;;;;;;4997852;28;20234;-80
2022/01/21 01:30:42;;;;;;;91.17;86.20;;;4.10;99.90;;;;;;4982919;28;20204;-80
2022/01/21 01:33:10;;;;;;;96.10;90.83;;;4.10;99.90;;;;;;4967405;28;20562;-79
2022/01/21 01:35:38;;;;;;;95.03;89.37;;;4.10;99.90;;;;;;4982881;28;20184;-80
2022/01/21 01:40:47;;;;;;;97.97;91.90;;;4.10;99.90;;;;;;4982795;28;20212;-80
2022/01/21 01:50:57;;;;;;;96.63;91.17;;;4.00;99.90;;;;;;4984738;28;20213;-80
2022/01/21 01:53:51;;;;;;;100.30;94.47;;;4.00;99.90;;;;;;4983100;28;20236;-80
2022/01/21 01:56:20;;;;;;;100.57;95.03;;;4.00;99.90;;;;;;4979708;28;20235;-80
2022/01/21 01:58:46;;;;;;;96.27;91.23;;;4.00;99.90;;;;;;4997443;28;20239;-80
2022/01/21 02:01:12;;;;;;;93.93;88.57;;;4.00;99.90;;;;;;4979623;28;20248;-79
2022/01/21 02:03:38;;;;;;;99.77;94.90;;;4.00;99.90;;;;;;4979969;28;20603;-81
2022/01/21 02:06:04;;;;;;;100.33;94.33;;;4.00;99.90;;;;;;4983450;28;20251;-79
2022/01/21 02:08:31;;;;;;;117.80;111.40;;;4.00;99.90;;;;;;4999536;28;20188;-80
2022/01/21 02:10:57;;;;;;;148.87;140.90;;;4.10;99.90;;;;;;4980303;28;20223;-81
2022/01/21 02:13:29;;;;;;;170.47;162.03;;;4.10;99.90;;;;;;4981433;28;20204;-79
2022/01/21 02:16:08;;;;;;;186.03;176.83;;;4.10;99.90;;;;;;4981810;28;20192;-80
2022/01/21 02:21:40;;;;;;;198.60;189.10;;;4.10;99.90;;;;;;5055641;27;1279130;-79
2022/01/21 02:24:15;;;;;;;200.47;190.37;;;4.00;99.90;;;;;;5062320;28;20188;-81
2022/01/21 02:26:42;;;;;;;208.07;198.07;;;4.00;99.90;;;;;;5078061;28;20737;-80
2022/01/21 02:29:10;;;;;;;212.50;202.00;;;3.90;99.90;;;;;;5040608;28;20201;-78
2022/01/21 02:31:38;;;;;;;212.63;201.87;;;3.90;99.90;;;;;;5038790;28;20388;-79
2022/01/21 02:34:05;;;;;;;207.33;197.13;;;3.90;99.90;;;;;;5072838;28;20192;-79
2022/01/21 02:36:31;;;;;;;210.83;199.23;;;3.90;99.90;;;;;;5040441;28;20197;-80
2022/01/21 02:38:57;;;;;;;205.80;195.80;;;3.80;99.90;;;;;;5056404;28;20192;-79
2022/01/21 02:41:23;;;;;;;207.03;196.43;;;3.80;99.90;;;;;;5054218;28;20224;-80
2022/01/21 02:43:50;;;;;;;211.07;199.83;;;3.80;99.90;;;;;;5064471;28;20204;-81
2022/01/21 02:46:18;;;;;;;208.73;198.50;;;3.80;99.90;;;;;;5058394;28;20196;-81
2022/01/21 02:48:44;;;;;;;209.50;199.13;;;3.80;99.90;;;;;;5058518;28;20277;-80
2022/01/21 02:51:12;;;;;;;208.47;197.83;;;3.80;99.90;;;;;;5075622;28;20628;-80
2022/01/21 02:56:16;;;;;;;208.10;197.33;;;3.90;99.90;;;;;;5076759;28;20402;-81
2022/01/21 02:58:44;;;;;;;204.63;194.10;;;3.90;99.90;;;;;;5059106;28;20239;-80
2022/01/21 03:01:09;;;;;;;200.60;190.40;;;3.90;99.90;;;;;;5042538;28;20240;-80
2022/01/21 03:03:35;;;;;;;190.57;181.17;;;4.00;99.90;;;;;;5039931;28;20288;-80
2022/01/21 03:06:01;;;;;;;186.00;176.90;;;4.10;99.90;;;;;;5056770;28;20182;-80
2022/01/21 03:08:28;;;;;;;180.13;171.37;;;4.20;99.90;;;;;;5040280;28;20193;-80
2022/01/21 03:10:54;;;;;;;167.03;158.93;;;4.20;99.90;;;;;;5046493;28;20556;-80
2022/01/21 03:13:22;;;;;;;156.80;148.53;;;4.20;99.90;;;;;;5043404;28;20205;-80
2022/01/21 03:15:49;;;;;;;152.97;145.63;;;4.10;99.90;;;;;;5042433;28;20189;-79
2022/01/21 03:18:15;;;;;;;144.90;137.97;;;4.20;99.90;;;;;;5057350;28;20192;-80
2022/01/21 03:20:42;;;;;;;145.60;138.10;;;4.30;99.90;;;;;;5054699;28;20245;-79
2022/01/21 03:23:08;;;;;;;144.47;137.33;;;4.20;99.90;;;;;;5025610;28;20679;-79
2022/01/21 03:25:35;;;;;;;145.17;138.23;;;4.20;99.90;;;;;;5032075;28;20205;-80
2022/01/21 03:28:00;;;;;;;145.07;137.63;;;4.20;99.90;;;;;;5056701;28;20207;-80
2022/01/21 03:30:26;;;;;;;145.47;138.00;;;4.20;99.90;;;;;;5058084;28;20978;-80
2022/01/21 03:32:52;;;;;;;147.07;139.77;;;4.10;99.90;;;;;;5041385;28;20722;-79
2022/01/21 03:35:17;;;;;;;146.67;139.37;;;4.00;99.90;;;;;;5042675;28;20207;-79
2022/01/21 03:37:43;;;;;;;151.90;143.97;;;4.00;99.90;;;;;;5024457;28;20422;-80
2022/01/21 03:40:12;;;;;;;149.10;141.50;;;4.00;99.90;;;;;;5047872;28;20218;-81
2022/01/21 03:42:38;;;;;;;148.30;141.03;;;3.90;99.90;;;;;;5054364;28;20198;-80
2022/01/21 03:45:04;;;;;;;148.90;141.63;;;3.90;99.90;;;;;;5037082;28;20272;-79
2022/01/21 03:47:29;;;;;;;148.83;141.20;;;3.80;99.90;;;;;;5044206;28;20660;-79
2022/01/21 03:50:08;;;;;;;148.20;140.80;;;3.80;99.90;;;;;;5029810;28;20198;-79
2022/01/21 03:52:33;;;;;;;147.60;140.13;;;3.80;99.90;;;;;;5031674;28;20213;-79
2022/01/21 03:54:59;;;;;;;146.33;139.13;;;3.80;99.90;;;;;;5010423;28;20629;-79
2022/01/21 03:57:25;;;;;;;147.93;140.80;;;3.80;99.90;;;;;;5013968;28;20661;-80
2022/01/21 03:59:50;;;;;;;143.97;136.57;;;3.80;99.90;;;;;;5027738;28;20571;-80
2022/01/21 04:02:16;;;;;;;138.63;131.93;;;3.80;99.90;;;;;;5028288;28;22522;-81
2022/01/21 04:04:42;;;;;;;132.93;126.30;;;3.80;99.90;;;;;;5013351;28;20209;-80
2022/01/21 04:07:07;;;;;;;128.37;121.90;;;3.90;99.90;;;;;;5029679;28;20201;-80
2022/01/21 04:09:34;;;;;;;119.10;113.23;;;4.00;99.90;;;;;;5043874;28;20302;-82
2022/01/21 04:12:00;;;;;;;122.97;116.87;;;4.00;99.90;;;;;;5027860;28;20243;-81
2022/01/21 04:14:26;;;;;;;122.33;115.53;;;4.10;99.90;;;;;;5034221;28;20189;-82
2022/01/21 04:16:51;;;;;;;118.30;111.90;;;4.10;99.90;;;;;;5045018;28;20194;-81
2022/01/21 04:19:17;;;;;;;116.60;110.37;;;4.20;99.90;;;;;;5028632;28;20192;-81
2022/01/21 04:21:43;;;;;;;115.23;109.50;;;4.20;99.90;;;;;;5028277;28;20729;-80
2022/01/21 04:24:09;;;;;;;116.77;110.53;;;4.20;99.90;;;;;;5027562;28;20197;-81
2022/01/21 04:26:34;;;;;;;118.63;112.27;;;4.20;99.90;;;;;;5013346;28;20546;-80
2022/01/21 04:29:00;;;;;;;118.77;112.17;;;4.20;99.90;;;;;;5047775;28;20221;-82
2022/01/21 04:31:26;;;;;;;114.77;108.57;;;4.20;99.90;;;;;;5014537;28;20196;-81
2022/01/21 04:33:52;;;;;;;111.83;105.83;;;4.10;99.90;;;;;;5013153;28;20624;-81
2022/01/21 04:36:18;;;;;;;114.57;108.77;;;4.20;99.90;;;;;;5033356;28;20193;-81
2022/01/21 04:38:44;;;;;;;110.87;105.33;;;4.10;99.90;;;;;;5044556;28;20280;-81
2022/01/21 04:49:08;;;;;;;104.50;99.20;;;4.10;99.90;;;;;;5032889;28;20561;-81
2022/01/21 04:51:40;;;;;;;106.83;101.70;;;4.10;99.90;;;;;;5027466;28;20206;-80
2022/01/21 04:54:06;;;;;;;104.50;98.90;;;4.10;99.90;;;;;;5034064;28;20628;-82
2022/01/21 04:56:32;;;;;;;103.87;98.57;;;4.20;99.90;;;;;;5043508;28;20197;-80
2022/01/21 04:58:58;;;;;;;101.43;95.97;;;4.20;99.90;;;;;;5028196;28;20206;-82
2022/01/21 05:01:24;;;;;;;101.80;96.80;;;4.20;99.90;;;;;;5031964;28;20253;-82
2022/01/21 05:03:50;;;;;;;101.40;96.07;;;4.20;99.90;;;;;;5028086;28;20191;-82
2022/01/21 05:06:16;;;;;;;100.80;95.60;;;4.20;99.90;;;;;;5044124;28;20272;-80
2022/01/21 05:11:13;;;;;;;103.27;97.87;;;4.10;99.90;;;;;;5030128;28;20666;-81
2022/01/21 05:13:42;;;;;;;106.43;101.20;;;4.10;99.90;;;;;;5026684;28;20214;-82
2022/01/21 05:16:31;;;;;;;108.10;102.33;;;4.00;99.90;;;;;;5030949;28;20629;-80
2022/01/21 05:18:56;;;;;;;107.43;101.73;;;4.00;99.90;;;;;;5060782;28;20220;-81
2022/01/21 05:21:22;;;;;;;108.63;102.93;;;4.00;99.90;;;;;;5058650;28;20248;-81
2022/01/21 05:23:48;;;;;;;104.93;99.83;;;4.00;99.90;;;;;;5059186;28;20197;-82
2022/01/21 05:26:14;;;;;;;108.77;102.53;;;4.00;99.90;;;;;;5041715;28;20896;-81
2022/01/21 05:28:40;;;;;;;108.80;102.73;;;4.00;99.90;;;;;;5028685;28;20292;-81
2022/01/21 05:31:05;;;;;;;105.97;100.30;;;4.00;99.90;;;;;;5033465;28;20198;-81
2022/01/21 05:33:31;;;;;;;106.37;100.90;;;4.00;99.90;;;;;;5031958;28;20227;-81
2022/01/21 05:35:57;;;;;;;103.43;98.07;;;4.00;99.90;;;;;;5043986;28;20193;-81
2022/01/21 05:38:22;;;;;;;103.50;97.80;;;4.00;99.90;;;;;;5023390;28;20194;-81
2022/01/21 05:40:50;;;;;;;100.50;95.27;;;4.00;99.90;;;;;;5033333;28;21001;-81
2022/01/21 05:43:15;;;;;;;98.23;92.73;;;4.00;99.90;;;;;;5047950;28;20205;-80
2022/01/21 05:48:26;;;;;;;102.07;96.67;;;4.00;99.90;;;;;;5047730;28;20274;-82
2022/01/21 05:50:51;;;;;;;99.93;94.33;;;4.00;99.90;;;;;;5057417;28;20198;-81
2022/01/21 05:53:17;;;;;;;99.63;94.23;;;4.00;99.90;;;;;;5046349;28;20221;-79
2022/01/21 05:55:43;;;;;;;98.13;92.70;;;4.00;99.90;;;;;;5041658;28;20223;-81
2022/01/21 05:58:11;;;;;;;118.63;112.07;;;4.10;99.90;;;;;;5032904;28;20297;-82
2022/01/21 06:00:37;;;;;;;129.07;121.63;;;4.20;99.90;;;;;;5043802;28;20566;-81
2022/01/21 06:03:04;;;;;;;129.77;123.03;;;4.20;99.90;;;;;;5027550;28;20597;-81
2022/01/21 06:05:33;;;;;;;132.87;126.07;;;4.20;99.90;;;;;;5025544;28;20671;-81
2022/01/21 06:08:00;;;;;;;134.97;127.80;;;4.20;99.90;;;;;;5033664;28;20628;-80
2022/01/21 06:10:26;;;;;;;134.17;127.40;;;4.20;99.90;;;;;;5059925;28;20304;-80
2022/01/21 06:12:52;;;;;;;137.07;129.53;;;4.10;99.90;;;;;;5025692;28;20388;-80
2022/01/21 06:15:17;;;;;;;136.70;129.77;;;4.10;99.90;;;;;;5042856;28;20275;-82
2022/01/21 06:17:44;;;;;;;133.93;126.67;;;4.00;99.90;;;;;;5044907;28;20194;-82
2022/01/21 06:20:10;;;;;;;131.07;124.10;;;4.00;99.90;;;;;;5043018;28;20284;-82
2022/01/21 06:22:36;;;;;;;130.87;124.33;;;4.10;99.90;;;;;;5032112;28;20647;-81
2022/01/21 06:25:02;;;;;;;130.90;123.80;;;4.10;99.90;;;;;;5025091;28;20185;-82
2022/01/21 06:27:30;;;;;;;128.57;121.60;;;4.10;99.90;;;;;;5024717;28;20201;-81
2022/01/21 06:29:56;;;;;;;129.83;122.87;;;4.10;99.90;;;;;;5011329;28;20582;-81
2022/01/21 06:32:22;;;;;;;130.17;122.67;;;4.10;99.90;;;;;;5010828;28;20281;-82
2022/01/21 06:34:47;;;;;;;127.97;120.97;;;4.10;99.90;;;;;;5044919;28;20225;-81
2022/01/21 06:37:13;;;;;;;125.67;118.47;;;4.20;99.90;;;;;;5033491;28;20672;-82
2022/01/21 06:39:39;;;;;;;123.20;116.40;;;4.20;99.90;;;;;;5011590;28;20255;-80
2022/01/21 06:42:05;;;;;;;124.00;117.30;;;4.20;99.90;;;;;;5010181;28;21122;-81
2022/01/21 06:44:30;;;;;;;125.17;118.27;;;4.30;99.90;;;;;;5033216;28;20472;-81
2022/01/21 06:46:56;;;;;;;124.20;116.83;;;4.30;99.90;;;;;;5033376;28;20182;-81
2022/01/21 06:49:21;;;;;;;122.97;116.57;;;4.30;99.90;;;;;;5025365;28;20190;-82
2022/01/21 06:51:47;;;;;;;124.90;117.80;;;4.30;99.90;;;;;;5034276;28;20237;-81
2022/01/21 06:54:13;;;;;;;127.90;120.43;;;4.30;99.90;;;;;;5049483;28;20816;-81
2022/01/21 06:56:39;;;;;;;122.67;115.57;;;4.30;99.90;;;;;;5027331;28;20177;-82
2022/01/21 06:59:05;;;;;;;121.37;114.70;;;4.30;99.90;;;;;;5009608;28;20652;-81
2022/01/21 07:01:30;;;;;;;115.90;109.50;;;4.40;99.90;;;;;;5026044;28;20233;-82
2022/01/21 07:03:56;;;;;;;107.40;101.57;;;4.40;99.90;;;;;;5025803;28;20966;-82
2022/01/21 07:06:22;;;;;;;99.43;93.97;;;4.40;99.90;;;;;;5044885;28;20617;-82
2022/01/21 07:08:47;;;;;;;101.50;95.67;;;4.50;99.90;;;;;;5016022;28;20210;-81
2022/01/21 07:11:13;;;;;;;99.73;93.87;;;4.50;99.90;;;;;;5048334;28;20212;-81
2022/01/21 07:13:39;;;;;;;97.30;91.80;;;4.50;99.90;;;;;;5046514;28;20989;-82
2022/01/21 07:16:06;;;;;;;88.43;83.13;;;4.50;99.90;;;;;;5031640;28;20281;-81
2022/01/21 07:18:32;;;;;;;85.07;79.73;;;4.60;99.90;;;;;;5048572;28;20190;-79
2022/01/21 07:20:57;;;;;;;89.00;83.50;;;4.60;99.90;;;;;;5032423;28;20712;-82
2022/01/21 07:23:23;;;;;;;87.43;82.13;;;4.70;99.90;;;;;;5027933;28;20194;-82
2022/01/21 07:25:49;;;;;;;85.77;81.03;;;4.80;99.90;;;;;;5025283;28;20561;-80
2022/01/21 07:28:14;;;;;;;82.70;78.20;;;4.70;99.90;;;;;;5024202;28;20202;-82
2022/01/21 07:30:40;;;;;;;84.30;79.27;;;4.70;99.90;;;;;;5031785;28;20209;-82
2022/01/21 07:33:08;;;;;;;83.83;78.70;;;4.70;99.90;;;;;;5013580;28;20199;-82
2022/01/21 07:35:34;;;;;;;84.00;78.87;;;4.70;99.90;;;;;;5012872;28;20481;-81
2022/01/21 07:38:00;;;;;;;80.30;75.43;;;4.70;99.90;;;;;;5043682;28;20202;-82
2022/01/21 07:40:26;;;;;;;83.53;77.53;;;4.70;99.90;;;;;;5043367;28;20897;-81
2022/01/21 07:42:52;;;;;;;81.03;76.63;;;4.70;99.90;;;;;;5050561;28;20233;-82
2022/01/21 07:45:18;;;;;;;83.30;76.83;;;4.80;99.90;;;;;;5026553;28;20198;-79
2022/01/21 07:47:43;;;;;;;80.50;76.13;;;4.70;99.90;;;;;;5033775;28;20278;-82
2022/01/21 07:50:09;;;;;;;80.33;75.47;;;4.80;99.90;;;;;;5041663;28;20190;-82
2022/01/21 07:52:35;;;;;;;77.10;72.37;;;4.80;99.90;;;;;;5029307;28;20186;-82
2022/01/21 07:55:01;;;;;;;80.47;75.13;;;4.80;99.90;;;;;;5033583;28;20195;-81
2022/01/21 07:57:26;;;;;;;77.77;72.67;;;4.80;99.90;;;;;;5041882;28;20313;-82
2022/01/21 07:59:52;;;;;;;72.83;68.23;;;4.80;99.90;;;;;;5036325;28;20217;-82
2022/01/21 08:02:18;;;;;;;72.43;67.93;;;4.90;99.90;;;;;;5043867;28;20309;-81
2022/01/21 08:04:44;;;;;;;70.20;65.67;;;4.90;99.90;;;;;;5041652;28;20327;-82
2022/01/21 08:07:10;;;;;;;71.03;66.33;;;5.10;99.90;;;;;;5026851;28;20678;-81
2022/01/21 08:09:36;;;;;;;68.13;63.47;;;5.10;99.90;;;;;;5010253;28;20695;-80
2022/01/21 08:12:03;;;;;;;67.33;62.60;;;5.40;99.90;;;;;;5055940;28;20668;-82
2022/01/21 08:14:29;;;;;;;68.07;63.10;;;6.10;99.90;;;;;;5034754;28;20194;-80
2022/01/21 08:16:55;;;;;;;65.77;61.87;;;6.80;99.90;;;;;;5031297;28;20627;-81
2022/01/21 08:19:21;;;;;;;69.87;65.63;;;7.40;99.90;;;;;;5010600;28;20186;-82
2022/01/21 08:21:47;;;;;;;69.97;65.30;;;7.90;99.90;;;;;;5057356;28;20257;-81
2022/01/21 08:24:13;;;;;;;68.87;64.70;;;8.40;99.90;;;;;;5031661;28;20272;-81
2022/01/21 08:26:39;;;;;;;71.17;66.30;;;8.80;99.90;;;;;;5039938;28;20195;-82
2022/01/21 08:29:05;;;;;;;72.17;67.80;;;9.10;99.90;;;;;;5026876;28;20194;-81
2022/01/21 08:31:32;;;;;;;70.17;65.30;;;8.90;99.90;;;;;;5011757;28;20190;-82
2022/01/21 08:33:58;;;;;;;67.13;62.27;;;8.40;99.90;;;;;;5033501;28;20324;-81
2022/01/21 08:36:26;;;;;;;59.97;56.23;;;7.90;99.90;;;;;;5023209;28;20254;-81
2022/01/21 08:38:53;;;;;;;58.43;54.13;;;7.50;99.90;;;;;;5040665;28;20535;-81
2022/01/21 08:41:19;;;;;;;56.97;53.00;;;7.30;99.90;;;;;;5030632;28;20210;-81
2022/01/21 08:43:45;;;;;;;55.17;51.50;;;6.90;99.90;;;;;;5040099;28;20210;-80
2022/01/21 08:46:11;;;;;;;52.73;49.10;;;6.70;99.90;;;;;;5040879;28;20651;-81
2022/01/21 08:48:37;;;;;;;51.60;47.40;;;6.50;99.90;;;;;;5025168;28;20197;-81
2022/01/21 08:51:09;;;;;;;48.53;45.13;;;6.50;99.90;;;;;;5040015;28;20198;-81
2022/01/21 08:53:36;;;;;;;49.67;46.10;;;6.50;99.90;;;;;;5042951;28;20185;-81
2022/01/21 08:56:04;;;;;;;46.83;43.73;;;6.60;99.90;;;;;;5040425;28;20210;-81
2022/01/21 08:58:30;;;;;;;48.90;44.83;;;6.60;99.90;;;;;;5042614;28;20210;-81
2022/01/21 09:00:56;;;;;;;44.53;40.47;;;6.70;99.90;;;;;;5014448;28;20725;-82
2022/01/21 09:03:22;;;;;;;46.37;42.43;;;6.80;99.90;;;;;;5041251;28;20187;-80
2022/01/21 09:05:49;;;;;;;46.07;41.90;;;6.90;99.90;;;;;;5040981;28;20623;-81
2022/01/21 09:08:24;;;;;;;44.10;41.20;;;7.10;99.90;;;;;;5025173;28;20195;-81
2022/01/21 09:10:51;;;;;;;42.67;39.97;;;7.00;99.90;;;;;;5042916;28;20225;-81
2022/01/21 09:13:16;;;;;;;42.20;38.70;;;7.00;99.90;;;;;;5041828;28;20221;-80
2022/01/21 09:15:42;;;;;;;38.93;35.73;;;7.00;99.90;;;;;;5026537;28;20182;-79
2022/01/21 09:18:09;;;;;;;38.80;35.83;;;6.90;99.90;;;;;;5026195;28;20186;-81
2022/01/21 09:20:36;;;;;;;38.57;35.50;;;6.90;99.90;;;;;;5042502;28;20285;-79
2022/01/21 09:23:06;;;;;;;38.20;35.23;;;7.00;99.90;;;;;;5022645;28;20202;-80
2022/01/21 09:25:31;;;;;;;38.47;35.47;;;7.00;99.90;;;;;;5039171;28;20641;-82
2022/01/21 09:27:59;;;;;;;36.53;33.80;;;7.00;99.90;;;;;;5038005;28;20193;-80
2022/01/21 09:30:25;;;;;;;35.07;32.97;;;7.00;99.90;;;;;;5023947;28;20209;-81
2022/01/21 09:32:51;;;;;;;35.73;33.27;;;7.00;99.90;;;;;;5056547;28;20248;-81
2022/01/21 09:35:17;;;;;;;34.03;31.40;;;7.00;99.90;;;;;;5041035;28;20237;-81
2022/01/21 09:37:42;;;;;;;35.30;31.93;;;7.00;99.90;;;;;;5040264;28;20690;-81
2022/01/21 09:40:09;;;;;;;37.00;33.47;;;7.10;99.90;;;;;;5025538;28;20213;-81
2022/01/21 09:42:36;;;;;;;37.70;34.60;;;7.20;99.90;;;;;;5040652;28;20198;-80
2022/01/21 09:45:08;;;;;;;36.37;33.60;;;7.30;99.90;;;;;;5041273;28;20174;-82
2022/01/21 09:47:46;;;;;;;36.03;33.13;;;7.40;99.90;;;;;;5026830;28;20188;-81
2022/01/21 09:50:16;;;;;;;35.43;32.37;;;7.40;99.90;;;;;;5040338;28;20174;-82
2022/01/21 09:52:46;;;;;;;34.50;31.67;;;7.50;99.90;;;;;;5056801;28;20182;-80
2022/01/21 09:55:12;;;;;;;33.20;30.47;;;7.50;99.90;;;;;;5055608;28;20214;-80
2022/01/21 09:57:41;;;;;;;35.30;32.50;;;7.50;99.90;;;;;;5009612;28;20217;-81
2022/01/21 10:00:08;;;;;;;34.07;31.13;;;7.40;99.90;;;;;;5039510;28;20643;-81
2022/01/21 10:02:35;;;;;;;31.83;29.70;;;7.30;99.90;;;;;;5036315;28;20190;-82
2022/01/21 10:05:02;;;;;;;32.03;29.50;;;7.30;99.90;;;;;;5023223;28;20190;-81
2022/01/21 10:07:29;;;;;;;32.00;30.10;;;7.30;99.90;;;;;;5009161;28;20226;-82
2022/01/21 10:09:57;;;;;;;33.40;30.50;;;7.30;99.90;;;;;;5038029;28;20573;-81
2022/01/21 10:12:24;;;;;;;31.53;29.63;;;7.40;99.90;;;;;;5041054;28;20194;-81
2022/01/21 10:14:50;;;;;;;31.17;28.93;;;7.50;99.90;;;;;;5023642;28;20192;-79
2022/01/21 10:17:16;;;;;;;33.57;31.47;;;7.60;99.90;;;;;;5023892;28;20191;-81
2022/01/21 10:19:45;;;;;;;33.73;31.60;;;7.60;99.90;;;;;;5040679;28;20210;-79
2022/01/21 10:22:18;;;;;;;36.27;33.50;;;7.70;99.90;;;;;;5041515;28;20226;-83
2022/01/21 10:24:52;;;;;;;37.10;34.03;;;7.60;99.90;;;;;;5039216;28;20182;-81
2022/01/21 10:27:26;;;;;;;37.50;35.23;;;7.50;99.90;;;;;;5040941;28;20577;-82
2022/01/21 10:29:52;;;;;;;39.13;36.60;;;7.50;99.90;;;;;;5043122;28;20547;-81
2022/01/21 10:32:33;;;;;;;35.50;32.97;;;7.50;99.90;;;;;;5030620;28;20262;-82
2022/01/21 10:34:59;;;;;;;31.20;28.87;;;7.70;99.90;;;;;;5037896;28;20190;-80
2022/01/21 10:37:31;;;;;;;33.13;31.07;;;7.90;99.90;;;;;;5039833;28;20199;-81
2022/01/21 10:40:09;;;;;;;34.20;31.20;;;8.20;99.90;;;;;;5045661;28;20368;-81
2022/01/21 10:42:36;;;;;;;33.87;31.70;;;8.30;99.90;;;;;;5026582;28;20275;-82
2022/01/21 10:45:05;;;;;;;34.87;32.27;;;8.50;99.90;;;;;;5043979;28;20179;-82
2022/01/21 10:47:35;;;;;;;34.73;32.30;;;8.50;99.90;;;;;;5044011;28;20497;-81
2022/01/21 10:50:13;;;;;;;33.20;31.00;;;8.50;99.90;;;;;;5042584;28;20210;-81
2022/01/21 10:52:50;;;;;;;34.10;31.57;;;8.50;99.90;;;;;;5043662;28;20182;-80
2022/01/21 10:55:34;;;;;;;34.60;31.97;;;8.40;99.90;;;;;;5043745;28;20611;-81
2022/01/21 10:58:12;;;;;;;33.03;31.13;;;8.30;99.90;;;;;;5042320;28;20203;-82
2022/01/21 11:00:56;;;;;;;35.57;33.40;;;8.20;99.90;;;;;;5041728;28;20195;-81
2022/01/21 11:03:22;;;;;;;36.57;33.47;;;8.20;99.90;;;;;;5047188;28;20289;-81
2022/01/21 11:05:49;;;;;;;33.87;30.77;;;8.10;99.90;;;;;;5050123;28;20298;-81
2022/01/21 11:08:16;;;;;;;33.90;30.67;;;8.00;99.90;;;;;;5042437;28;20548;-79
2022/01/21 11:10:47;;;;;;;30.73;28.73;;;8.00;99.90;;;;;;5027942;28;20312;-80
2022/01/21 11:13:13;;;;;;;32.70;29.83;;;8.10;99.90;;;;;;5045869;28;20206;-82
2022/01/21 11:15:42;;;;;;;29.10;26.93;;;8.10;99.90;;;;;;5044752;28;20190;-82
2022/01/21 11:18:13;;;;;;;28.50;26.03;;;8.10;99.90;;;;;;5042921;28;20199;-82
2022/01/21 11:20:41;;;;;;;27.50;25.80;;;8.20;99.90;;;;;;5041936;28;20239;-83
2022/01/21 11:23:08;;;;;;;24.77;23.10;;;8.20;99.90;;;;;;5025132;28;20213;-82
2022/01/21 11:25:46;;;;;;;26.70;24.57;;;8.20;99.90;;;;;;5041442;28;20195;-80
2022/01/21 11:28:23;;;;;;;28.73;25.80;;;8.30;99.90;;;;;;5044500;28;20512;-82
2022/01/21 11:30:51;;;;;;;26.40;24.13;;;8.30;99.90;;;;;;5043117;28;20189;-81
2022/01/21 11:33:17;;;;;;;23.40;21.30;;;8.30;99.90;;;;;;5042968;28;20194;-82
2022/01/21 11:35:44;;;;;;;23.23;21.20;;;8.50;99.90;;;;;;5041548;28;20216;-82
2022/01/21 11:38:12;;;;;;;27.23;23.00;;;8.60;99.90;;;;;;5041295;28;20210;-81
2022/01/21 11:40:39;;;;;;;22.43;20.37;;;8.50;99.90;;;;;;5039841;28;20238;-82
2022/01/21 11:43:07;;;;;;;22.50;20.43;;;8.60;99.90;;;;;;5016927;28;20286;-83
2022/01/21 11:50:45;;;;;;;21.00;18.20;;;8.80;99.90;;;;;;5041262;28;20665;-81
2022/01/21 11:53:11;;;;;;;20.77;18.97;;;8.80;99.90;;;;;;5047411;28;20221;-82
2022/01/21 11:55:47;;;;;;;19.67;17.87;;;9.10;99.90;;;;;;5040645;28;20684;-82
2022/01/21 11:58:18;;;;;;;22.03;19.93;;;9.10;99.90;;;;;;5046962;28;20198;-85
2022/01/21 12:00:47;;;;;;;21.57;19.60;;;8.90;99.90;;;;;;5041048;28;20218;-81
2022/01/21 12:03:19;;;;;;;20.50;18.63;;;8.70;99.90;;;;;;5041408;28;20194;-81
2022/01/21 12:05:45;;;;;;;20.33;18.53;;;8.60;99.90;;;;;;5024292;28;20187;-82
2022/01/21 12:08:11;;;;;;;19.53;17.50;;;8.50;99.90;;;;;;5025301;28;20296;-81
2022/01/21 12:10:42;;;;;;;18.93;16.93;;;8.40;99.90;;;;;;5056514;28;20190;-80
2022/01/21 12:13:17;;;;;;;17.47;15.73;;;8.40;99.90;;;;;;5015749;28;20289;-83
2022/01/21 12:16:20;;;;;;;18.43;16.53;;;8.40;99.90;;;;;;5042503;28;20186;-81
2022/01/21 12:21:37;;;;;;;27.93;16.40;;;8.50;99.90;;;;;;5052602;28;20237;-80
2022/01/21 12:24:03;;;;;;;23.10;16.00;;;8.50;99.90;;;;;;5047436;28;20186;-82
2022/01/21 12:26:32;;;;;;;20.77;15.53;;;8.40;99.90;;;;;;5031130;28;20244;-81
2022/01/21 12:28:58;;;;;;;21.53;16.07;;;8.40;99.90;;;;;;5048776;28;20254;-81
2022/01/21 12:31:44;;;;;;;20.33;15.20;;;8.50;99.90;;;;;;5048235;28;20206;-82
2022/01/21 12:34:15;;;;;;;26.77;14.50;;;8.60;99.90;;;;;;5047114;28;20197;-80
2022/01/21 12:36:56;;;;;;;14.50;13.10;;;8.60;99.90;;;;;;5033213;28;20198;-81
2022/01/21 12:39:41;;;;;;;19.70;13.13;;;8.60;99.90;;;;;;5061302;28;20675;-80
2022/01/21 12:42:27;;;;;;;16.77;12.33;;;8.80;99.90;;;;;;5059111;28;20232;-80
2022/01/21 12:45:03;;;;;;;19.67;13.80;;;9.00;99.90;;;;;;5060170;28;20191;-82
2022/01/21 12:47:43;;;;;;;14.83;12.23;;;9.10;99.90;;;;;;5042473;28;20778;-81
2022/01/21 12:50:19;;;;;;;14.03;12.47;;;9.10;99.90;;;;;;5045959;28;20268;-80
2022/01/21 12:52:55;;;;;;;14.83;11.87;;;9.10;99.90;;;;;;5062022;28;20173;-83
2022/01/21 12:58:19;;;;;;;16.53;12.97;;;8.90;99.90;;;;;;5062546;28;20285;-80
2022/01/21 13:00:45;;;;;;;16.23;12.43;;;8.70;99.90;;;;;;5043331;28;21025;-81
2022/01/21 13:03:52;;;;;;;13.90;12.20;;;8.60;99.90;;;;;;5045103;28;20193;-80
2022/01/21 13:06:41;;;;;;;14.10;12.77;;;8.60;99.90;;;;;;4971832;28;20208;-82
2022/01/21 13:09:19;;;;;;;16.27;13.27;;;8.40;99.90;;;;;;4980897;28;20202;-81
2022/01/21 13:11:58;;;;;;;15.93;14.33;;;8.30;99.90;;;;;;5020400;28;20292;-80
2022/01/21 13:17:02;;;;;;;30.80;28.17;;;8.10;99.90;;;;;;5035924;28;20216;-81
2022/01/21 13:19:30;;;;;;;60.50;56.23;;;8.00;99.90;;;;;;5050264;28;20285;-81
2022/01/21 13:21:57;;;;;;;84.60;79.07;;;7.90;99.90;;;;;;5033405;28;20276;-81
2022/01/21 13:26:53;;;;;;;127.53;120.50;;;7.50;99.90;;;;;;5043594;28;20209;-81
2022/01/21 13:29:28;;;;;;;149.50;141.83;;;7.40;99.90;;;;;;5029609;28;20300;-81
2022/01/21 13:31:57;;;;;;;196.40;185.97;;;7.30;99.90;;;;;;5046988;28;20273;-82
2022/01/21 13:34:32;;;;;;;390.23;368.77;;;7.30;99.90;;;;;;5043720;28;20293;-82
2022/01/21 13:37:03;;;;;;;365.57;345.67;;;7.20;99.90;;;;;;5051947;28;20241;-80
2022/01/21 13:39:38;;;;;;;417.87;391.50;;;7.10;99.90;;;;;;5057921;28;20215;-79
2022/01/21 13:42:06;;;;;;;418.60;392.37;;;7.10;99.90;;;;;;5060746;28;20216;-81